USTRANSCOM 7510


ETAR
Ramstein Air Force Base
Ramstein, DE
KWRI
Joint Base McGuire Dix Lakehurst
Wrightstown, US

Route Details

Aircraft Information
Primary: Boeing 767-300BDSF
Backup: Boeing 757-200SF
Route Data
Distance: 3394nm
Sched. Duration: 8h 30m
Avg. Duration: 8h 46m (+16m)
Times Flown: 1
Recm'd Route: Not Available
Planned Altitude: 32,000ft
Origin Wx: ETAR 220156Z 22015G27KT 9999 OVC032 10/09 A2927 RMK AO2A PK WND 22035/52 RAE00RAB24E33 SLP917 P0000 T00990091 FZRANO
Dest. Wx:
Notes: USTRANSCOM CONTRACT FLIGHT

Financial History
Total Freight: 110,252lbs
Average Load: 110,252lbs/flt
Fuel Used: 101,341lbs
Avg. Fuel Used: 101,341lbs/flt
Fuel Expense: $81,073
Avg. Fuel Expense: $81,073
Avg. Fuel Cost: $0.80/lbs
Total Gross Income: $248,067
Pilot Pay: $259
Total Expenses: $26,843
Total Revenue: $137,960
Average Revenue: $248,067.00